createdAt,value
2022-09-24T00:01:47.991Z,5.55
2022-09-24T00:04:15.861Z,6.47
2022-09-24T00:06:45.772Z,5.50
2022-09-24T00:09:19.108Z,5.45
2022-09-24T00:11:47.046Z,5.35
2022-09-24T00:14:15.377Z,5.68
2022-09-24T00:16:43.877Z,6.35
2022-09-24T00:19:13.313Z,7.40
2022-09-24T00:21:42.201Z,9.48
2022-09-24T00:24:11.723Z,7.65
2022-09-24T00:26:51.828Z,6.25
2022-09-24T00:29:24.061Z,4.65
2022-09-24T00:31:53.186Z,7.55
2022-09-24T00:34:21.929Z,5.43
2022-09-24T00:36:49.735Z,5.18
2022-09-24T00:39:18.085Z,5.10
2022-09-24T00:41:49.011Z,5.10
2022-09-24T00:44:54.343Z,4.90
2022-09-24T00:47:29.714Z,4.93
2022-09-24T00:50:06.180Z,5.00
2022-09-24T00:52:35.085Z,4.72
2022-09-24T00:55:03.030Z,4.97
2022-09-24T00:57:35.280Z,5.47
2022-09-24T01:00:03.535Z,6.50
2022-09-24T01:02:33.169Z,6.72
2022-09-24T01:05:01.287Z,6.13
2022-09-24T01:07:29.096Z,5.60
2022-09-24T01:09:57.473Z,5.82
2022-09-24T01:12:33.493Z,6.82
2022-09-24T01:15:12.547Z,7.22
2022-09-24T01:17:49.712Z,6.85
2022-09-24T01:20:52.615Z,5.75
2022-09-24T01:23:49.199Z,5.53
2022-09-24T01:26:35.977Z,6.25
2022-09-24T01:29:28.250Z,7.10
2022-09-24T01:32:02.515Z,7.57
2022-09-24T01:34:37.948Z,6.30
2022-09-24T01:37:06.301Z,6.03
2022-09-24T01:39:35.778Z,7.55
2022-09-24T01:42:03.812Z,9.00
2022-09-24T01:44:33.350Z,9.43
2022-09-24T01:47:01.589Z,9.73
2022-09-24T01:49:30.326Z,8.93
2022-09-24T01:52:02.342Z,9.50
2022-09-24T01:54:33.460Z,8.27
2022-09-24T01:57:09.125Z,8.13
2022-09-24T01:59:41.550Z,8.90
2022-09-24T02:02:16.793Z,8.73
2022-09-24T02:04:48.673Z,9.13
2022-09-24T02:07:21.991Z,8.13
2022-09-24T02:09:50.771Z,9.32
2022-09-24T02:12:23.961Z,7.93
2022-09-24T02:14:57.164Z,8.45
2022-09-24T02:17:32.017Z,8.60
2022-09-24T02:20:02.898Z,8.52
2022-09-24T02:22:32.061Z,8.50
2022-09-24T02:25:05.336Z,8.50
2022-09-24T02:27:33.158Z,8.25
2022-09-24T02:30:03.243Z,7.60
2022-09-24T02:32:35.237Z,8.60
2022-09-24T02:35:05.374Z,7.97
2022-09-24T02:37:36.795Z,8.43
2022-09-24T02:40:06.554Z,8.60
2022-09-24T02:42:35.441Z,9.30
2022-09-24T02:45:05.220Z,8.48
2022-09-24T02:47:33.503Z,8.43
2022-09-24T02:50:01.425Z,7.72
2022-09-24T02:52:29.299Z,8.68
2022-09-24T02:54:57.164Z,7.47
2022-09-24T02:57:25.107Z,7.10
2022-09-24T02:59:52.976Z,6.53
2022-09-24T03:02:22.445Z,7.88
2022-09-24T03:04:52.113Z,7.30
2022-09-24T03:07:21.724Z,9.57
2022-09-24T03:09:49.576Z,6.88
2022-09-24T03:12:17.387Z,6.88
2022-09-24T03:14:45.137Z,6.90
2022-09-24T03:17:13.235Z,8.05
2022-09-24T03:19:42.425Z,8.77
2022-09-24T03:22:10.263Z,9.07
2022-09-24T03:24:38.039Z,9.02
2022-09-24T03:27:05.858Z,8.60
2022-09-24T03:29:50.312Z,8.73
2022-09-24T03:32:18.173Z,8.73
2022-09-24T03:34:47.328Z,9.95
2022-09-24T03:37:15.117Z,9.52
2022-09-24T03:39:42.882Z,9.18
2022-09-24T03:42:10.806Z,8.43
2022-09-24T03:44:38.701Z,8.77
2022-09-24T03:47:06.641Z,8.30
2022-09-24T03:49:34.607Z,7.60
2022-09-24T03:52:03.958Z,7.75
2022-09-24T03:54:31.834Z,8.00
2022-09-24T03:56:59.773Z,8.70
2022-09-24T03:59:27.595Z,8.20
2022-09-24T04:01:55.465Z,9.02
2022-09-24T04:04:23.281Z,9.38
2022-09-24T04:06:52.780Z,9.95
2022-09-24T04:09:21.944Z,9.60
2022-09-24T04:11:51.621Z,10.30
2022-09-24T04:14:19.518Z,6.78
2022-09-24T04:16:47.683Z,9.85
2022-09-24T04:19:16.705Z,8.82
2022-09-24T04:21:44.562Z,9.68
2022-09-24T04:24:12.357Z,9.73
2022-09-24T04:26:41.493Z,11.13
2022-09-24T04:29:09.514Z,9.10
2022-09-24T04:31:38.458Z,8.65
2022-09-24T04:34:06.442Z,9.80
2022-09-24T04:36:34.241Z,8.90
2022-09-24T04:39:03.378Z,7.97
2022-09-24T04:41:31.461Z,7.93
2022-09-24T04:44:00.748Z,8.40
2022-09-24T04:46:28.586Z,9.38
2022-09-24T04:48:56.627Z,10.20
2022-09-24T04:51:24.504Z,9.27
2022-09-24T04:53:52.398Z,9.75
2022-09-24T04:56:20.562Z,10.38
2022-09-24T04:58:51.835Z,13.00
2022-09-24T05:01:21.535Z,11.05
2022-09-24T05:03:49.556Z,11.43
2022-09-24T05:06:17.463Z,11.25
2022-09-24T05:08:45.313Z,11.77
2022-09-24T05:11:13.664Z,9.70
2022-09-24T05:13:41.656Z,11.05
2022-09-24T05:16:09.769Z,11.68
2022-09-24T05:18:39.015Z,11.00
2022-09-24T05:21:07.383Z,10.18
2022-09-24T05:23:35.280Z,10.73
2022-09-24T05:26:20.734Z,10.65
2022-09-24T05:28:48.681Z,10.90
2022-09-24T05:31:17.453Z,10.07
2022-09-24T05:33:46.750Z,12.43
2022-09-24T05:36:15.021Z,11.00
2022-09-24T05:38:43.005Z,9.45
2022-09-24T05:41:10.858Z,11.05
2022-09-24T05:43:38.788Z,10.15
2022-09-24T05:46:08.060Z,10.65
2022-09-24T05:48:36.068Z,10.37
2022-09-24T05:51:05.474Z,10.48
2022-09-24T05:53:33.960Z,10.30
2022-09-24T05:56:02.453Z,9.63
2022-09-24T05:58:30.311Z,9.65
2022-09-24T06:00:59.838Z,11.05
2022-09-24T06:03:27.865Z,12.03
2022-09-24T06:05:56.251Z,9.15
2022-09-24T06:08:25.579Z,10.27
2022-09-24T06:10:54.230Z,10.65
2022-09-24T06:13:22.627Z,9.57
2022-09-24T06:15:50.489Z,9.98
2022-09-24T06:18:18.636Z,10.23
2022-09-24T06:20:46.944Z,9.55
2022-09-24T06:23:14.921Z,10.35
2022-09-24T06:25:44.249Z,9.85
2022-09-24T06:28:12.213Z,10.25
2022-09-24T06:30:41.192Z,9.77
2022-09-24T06:33:10.737Z,12.65
2022-09-24T06:35:39.501Z,13.32
2022-09-24T06:38:08.198Z,12.38
2022-09-24T06:40:37.696Z,13.10
2022-09-24T06:43:07.859Z,13.07
2022-09-24T06:45:36.189Z,12.88
2022-09-24T06:48:06.574Z,12.77
2022-09-24T06:50:35.966Z,12.45
2022-09-24T06:53:06.333Z,11.90
2022-09-24T06:55:34.966Z,12.00
2022-09-24T06:58:04.766Z,11.40
2022-09-24T07:00:34.500Z,11.85
2022-09-24T07:03:02.453Z,30.90
2022-09-24T07:05:30.330Z,20.98
2022-09-24T07:07:58.156Z,14.50
2022-09-24T07:10:27.924Z,13.52
2022-09-24T07:12:56.162Z,15.73
2022-09-24T07:15:24.120Z,19.50
2022-09-24T07:17:57.852Z,18.73
2022-09-24T07:20:28.100Z,18.05
2022-09-24T07:22:56.228Z,15.20
2022-09-24T07:25:24.247Z,14.45
2022-09-24T07:27:52.170Z,13.73
2022-09-24T07:30:20.112Z,16.50
2022-09-24T07:32:50.545Z,16.45
2022-09-24T07:35:21.056Z,16.00
2022-09-24T07:37:48.891Z,13.45
2022-09-24T07:40:17.279Z,13.68
2022-09-24T07:42:49.045Z,14.55
2022-09-24T07:45:17.480Z,14.43
2022-09-24T07:47:45.423Z,14.00
2022-09-24T07:50:13.773Z,13.00
2022-09-24T07:52:42.968Z,12.15
2022-09-24T07:55:10.974Z,12.20
2022-09-24T07:57:39.377Z,12.10
2022-09-24T08:00:09.023Z,12.60
2022-09-24T08:02:39.573Z,11.95
2022-09-24T08:05:08.166Z,12.52
2022-09-24T08:07:35.978Z,13.05
2022-09-24T08:10:05.908Z,11.82
2022-09-24T08:12:33.933Z,11.75
2022-09-24T08:15:01.838Z,11.63
2022-09-24T08:17:29.626Z,11.85
2022-09-24T08:19:57.799Z,12.18
2022-09-24T08:22:26.290Z,12.57
2022-09-24T08:24:54.870Z,11.43
2022-09-24T08:27:25.193Z,11.75
2022-09-24T08:32:20.612Z,11.15
2022-09-24T08:34:48.466Z,12.40
2022-09-24T08:37:16.323Z,12.02
2022-09-24T08:39:44.182Z,11.82
2022-09-24T08:42:16.189Z,13.05
2022-09-24T08:45:04.129Z,12.77
2022-09-24T08:47:44.688Z,13.35
2022-09-24T08:50:17.390Z,12.55
2022-09-24T08:53:01.238Z,13.70
2022-09-24T08:55:35.530Z,13.18
2022-09-24T08:58:23.662Z,14.07
2022-09-24T09:00:57.764Z,15.23
2022-09-24T09:03:36.422Z,24.83
2022-09-24T09:06:07.122Z,20.95
2022-09-24T09:09:01.715Z,15.43
2022-09-24T09:11:33.990Z,16.70
2022-09-24T09:14:08.455Z,15.98
2022-09-24T09:16:45.647Z,16.65
2022-09-24T09:19:16.892Z,19.52
2022-09-24T09:21:46.843Z,18.88
2022-09-24T09:24:19.031Z,18.73
2022-09-24T09:26:50.482Z,20.10
2022-09-24T09:29:18.580Z,19.40
2022-09-24T09:31:59.582Z,18.60
2022-09-24T09:34:45.397Z,19.50
2022-09-24T09:37:26.146Z,20.65
2022-09-24T09:40:03.768Z,20.02
2022-09-24T09:42:35.950Z,20.58
2022-09-24T09:45:16.670Z,22.90
2022-09-24T09:47:50.539Z,22.33
2022-09-24T09:50:26.567Z,24.35
2022-09-24T09:52:55.325Z,22.00
2022-09-24T09:55:26.415Z,21.33
2022-09-24T09:57:59.885Z,21.08
2022-09-24T10:00:33.908Z,21.77
2022-09-24T10:03:04.205Z,22.00
2022-09-24T10:05:32.942Z,21.15
2022-09-24T10:08:00.813Z,21.60
2022-09-24T10:10:30.052Z,21.38
2022-09-24T10:13:09.797Z,22.58
2022-09-24T10:15:49.451Z,25.73
2022-09-24T10:18:23.329Z,26.63
2022-09-24T10:20:51.957Z,29.30
2022-09-24T10:23:22.365Z,30.00
2022-09-24T10:25:53.377Z,31.30
2022-09-24T10:28:39.092Z,29.10
2022-09-24T10:31:13.078Z,28.60
2022-09-24T10:33:44.762Z,29.35
2022-09-24T10:36:17.423Z,29.88
2022-09-24T10:38:45.720Z,27.77
2022-09-24T10:41:26.223Z,29.92
2022-09-24T10:43:55.519Z,26.38
2022-09-24T10:47:00.935Z,26.15
2022-09-24T10:49:44.323Z,24.95
2022-09-24T10:52:27.202Z,24.50
2022-09-24T10:55:06.307Z,24.05
2022-09-24T10:57:44.266Z,26.52
2022-09-24T11:00:19.967Z,24.08
2022-09-24T11:03:07.840Z,25.30
2022-09-24T11:05:46.035Z,23.65
2022-09-24T11:08:25.395Z,25.35
2022-09-24T11:11:13.334Z,25.30
2022-09-24T11:13:51.613Z,22.65
2022-09-24T11:17:02.218Z,22.95
2022-09-24T11:19:49.666Z,22.63
2022-09-24T11:22:26.238Z,20.85
2022-09-24T11:25:18.091Z,23.17
2022-09-24T11:27:55.103Z,23.85
2022-09-24T11:30:25.140Z,25.13
2022-09-24T11:33:11.480Z,24.10
2022-09-24T11:35:59.934Z,23.05
2022-09-24T11:38:42.819Z,23.52
2022-09-24T11:41:24.176Z,21.67
2022-09-24T11:44:11.351Z,20.70
2022-09-24T11:46:54.027Z,21.85
2022-09-24T11:49:36.729Z,20.23
2022-09-24T11:52:10.615Z,22.85
2022-09-24T11:54:47.394Z,20.95
2022-09-24T11:57:20.826Z,20.00
2022-09-24T11:59:55.466Z,25.52
2022-09-24T12:02:27.394Z,21.98
2022-09-24T12:05:03.528Z,18.23
2022-09-24T12:07:40.419Z,15.48
2022-09-24T12:10:26.828Z,15.68
2022-09-24T12:13:04.181Z,15.40
2022-09-24T12:15:47.708Z,14.45
2022-09-24T12:18:21.362Z,14.05
2022-09-24T12:20:53.075Z,15.60
2022-09-24T12:23:27.940Z,15.50
2022-09-24T12:25:59.472Z,15.50
2022-09-24T12:28:52.244Z,15.57
2022-09-24T12:31:45.906Z,15.60
2022-09-24T12:34:27.297Z,15.10
2022-09-24T12:37:02.425Z,15.73
2022-09-24T12:39:36.916Z,16.17
2022-09-24T12:42:09.157Z,15.13
2022-09-24T12:44:43.054Z,14.25
2022-09-24T12:47:21.065Z,15.00
2022-09-24T12:49:53.373Z,14.93
2022-09-24T12:52:26.987Z,14.63
2022-09-24T12:55:00.215Z,12.95
2022-09-24T12:57:33.808Z,13.18
2022-09-24T13:00:04.153Z,12.95
2022-09-24T13:05:17.542Z,14.63
2022-09-24T13:07:56.902Z,12.93
2022-09-24T13:10:27.787Z,14.07
2022-09-24T13:12:57.735Z,13.68
2022-09-24T13:15:33.339Z,15.93
2022-09-24T13:18:19.653Z,16.15
2022-09-24T13:21:00.064Z,14.48
2022-09-24T13:23:35.366Z,16.17
2022-09-24T13:26:05.540Z,15.23
2022-09-24T13:28:51.387Z,15.18
2022-09-24T13:31:27.384Z,17.83
2022-09-24T13:33:59.427Z,16.90
2022-09-24T13:36:31.768Z,15.90
2022-09-24T13:39:06.149Z,16.40
2022-09-24T13:41:43.607Z,16.58
2022-09-24T13:44:20.197Z,16.92
2022-09-24T13:46:52.285Z,17.20
2022-09-24T13:49:23.258Z,17.98
2022-09-24T13:51:59.094Z,18.00
2022-09-24T13:54:35.848Z,16.65
2022-09-24T13:57:12.705Z,17.55
2022-09-24T13:59:42.164Z,18.95
2022-09-24T14:02:27.045Z,18.35
2022-09-24T14:04:57.477Z,18.77
2022-09-24T14:07:26.644Z,19.95
2022-09-24T14:10:04.957Z,20.65
2022-09-24T14:12:33.018Z,20.00
2022-09-24T14:15:06.040Z,19.25
2022-09-24T14:17:34.007Z,19.38
2022-09-24T14:20:02.129Z,18.27
2022-09-24T14:22:36.023Z,18.50
2022-09-24T14:25:11.001Z,19.83
2022-09-24T14:27:44.045Z,19.52
2022-09-24T14:30:21.009Z,18.95
2022-09-24T14:32:53.002Z,23.98
2022-09-24T14:35:29.592Z,28.30
2022-09-24T14:38:06.424Z,34.10
2022-09-24T14:40:42.850Z,45.33
2022-09-24T14:43:19.284Z,24.58
2022-09-24T14:45:51.814Z,36.88
2022-09-24T14:48:27.975Z,44.45
2022-09-24T14:50:55.883Z,31.20
2022-09-24T14:53:27.766Z,20.25
2022-09-24T14:55:55.879Z,20.55
2022-09-24T14:58:34.946Z,20.48
2022-09-24T15:01:08.253Z,19.92
2022-09-24T15:03:42.544Z,20.30
2022-09-24T15:06:21.686Z,20.50
2022-09-24T15:08:56.169Z,21.52
2022-09-24T15:11:27.740Z,20.55
2022-09-24T15:14:01.181Z,22.02
2022-09-24T15:16:33.562Z,20.88
2022-09-24T15:19:19.632Z,19.77
2022-09-24T15:21:49.310Z,20.13
2022-09-24T15:24:18.211Z,19.98
2022-09-24T15:26:49.463Z,20.88
2022-09-24T15:29:24.610Z,21.95
2022-09-24T15:31:54.929Z,21.80
2022-09-24T15:36:55.459Z,21.15
2022-09-24T15:39:23.534Z,22.13
2022-09-24T15:41:51.469Z,23.92
2022-09-24T15:44:22.924Z,24.10
2022-09-24T15:46:52.025Z,24.67
2022-09-24T15:49:22.799Z,25.27
2022-09-24T15:51:52.477Z,25.67
2022-09-24T15:54:21.732Z,25.17
2022-09-24T15:56:52.397Z,23.92
2022-09-24T15:59:21.696Z,23.67
2022-09-24T16:01:51.892Z,23.25
2022-09-24T16:04:21.360Z,23.08
2022-09-24T16:06:49.736Z,21.85
2022-09-24T16:09:17.744Z,20.67
2022-09-24T16:11:46.807Z,21.92
2022-09-24T16:14:14.806Z,21.17
2022-09-24T16:16:42.690Z,21.83
2022-09-24T16:19:10.751Z,22.65
2022-09-24T16:21:40.019Z,21.83
2022-09-24T16:24:07.962Z,22.58
2022-09-24T16:26:37.298Z,23.05
2022-09-24T16:29:06.607Z,25.02
2022-09-24T16:31:34.640Z,24.87
2022-09-24T16:34:02.511Z,25.05
2022-09-24T16:36:30.555Z,26.58
2022-09-24T16:39:00.136Z,28.02
2022-09-24T16:41:30.893Z,28.83
2022-09-24T16:43:58.753Z,54.10
2022-09-24T16:46:26.755Z,35.78
2022-09-24T16:48:54.861Z,33.30
2022-09-24T16:51:22.836Z,31.10
2022-09-24T16:53:55.115Z,31.40
2022-09-24T16:56:24.966Z,37.95
2022-09-24T16:58:53.495Z,35.05
2022-09-24T17:01:22.947Z,34.78
2022-09-24T17:03:54.490Z,32.72
2022-09-24T17:06:24.507Z,32.20
2022-09-24T17:09:10.303Z,31.95
2022-09-24T17:11:40.559Z,34.42
2022-09-24T17:14:09.047Z,34.10
2022-09-24T17:16:37.403Z,33.92
2022-09-24T17:19:05.315Z,35.20
2022-09-24T17:21:33.248Z,36.90
2022-09-24T17:24:01.220Z,37.05
2022-09-24T17:26:29.213Z,37.80
2022-09-24T17:28:58.607Z,35.63
2022-09-24T17:31:27.526Z,33.70
2022-09-24T17:33:59.040Z,34.58
2022-09-24T17:36:28.951Z,33.10
2022-09-24T17:38:59.193Z,32.10
2022-09-24T17:43:58.141Z,31.55
2022-09-24T17:46:29.263Z,32.15
2022-09-24T17:48:58.357Z,31.98
2022-09-24T17:51:28.284Z,33.60
2022-09-24T17:53:56.982Z,34.75
2022-09-24T17:56:27.259Z,31.85
2022-09-24T17:58:56.530Z,34.42
2022-09-24T18:01:28.866Z,35.75
2022-09-24T18:03:58.433Z,36.38
2022-09-24T18:06:32.484Z,36.67
2022-09-24T18:09:02.531Z,36.05
2022-09-24T18:11:32.536Z,36.25
2022-09-24T18:14:02.169Z,37.22
2022-09-24T18:16:34.134Z,38.35
2022-09-24T18:19:03.429Z,38.47
2022-09-24T18:21:31.674Z,36.08
2022-09-24T18:24:01.634Z,35.08
2022-09-24T18:26:34.579Z,38.80
2022-09-24T18:29:05.687Z,41.53
2022-09-24T18:31:35.219Z,51.58
2022-09-24T18:34:06.608Z,50.70
2022-09-24T18:36:36.318Z,49.63
2022-09-24T18:39:05.576Z,46.33
2022-09-24T18:41:34.703Z,44.67
2022-09-24T18:44:03.617Z,42.65
2022-09-24T18:46:32.957Z,35.33
2022-09-24T18:49:03.092Z,35.43
2022-09-24T18:51:33.220Z,36.10
2022-09-24T18:54:03.343Z,33.72
2022-09-24T18:56:31.938Z,37.13
2022-09-24T18:59:03.706Z,45.92
2022-09-24T19:01:35.292Z,40.10
2022-09-24T19:04:05.123Z,44.60
2022-09-24T19:06:35.870Z,49.08
2022-09-24T19:09:06.022Z,48.20
2022-09-24T19:11:34.684Z,47.13
2022-09-24T19:14:03.116Z,43.22
2022-09-24T19:16:31.303Z,42.88
2022-09-24T19:19:01.525Z,41.45
2022-09-24T19:23:59.772Z,40.33
2022-09-24T19:26:29.980Z,48.65
2022-09-24T19:28:58.820Z,43.75
2022-09-24T19:31:29.862Z,44.35
2022-09-24T19:33:58.455Z,41.45
2022-09-24T19:36:26.284Z,41.80
2022-09-24T19:38:55.584Z,40.85
2022-09-24T19:41:26.365Z,41.40
2022-09-24T19:43:56.993Z,40.53
2022-09-24T19:46:27.012Z,38.45
2022-09-24T19:48:56.795Z,37.28
2022-09-24T19:51:25.971Z,37.58
2022-09-24T19:53:56.935Z,35.00
2022-09-24T19:56:25.494Z,36.70
2022-09-24T19:58:53.701Z,37.13
2022-09-24T20:01:22.638Z,37.08
2022-09-24T20:03:50.902Z,39.15
2022-09-24T20:06:20.523Z,37.80
2022-09-24T20:08:48.425Z,35.95
2022-09-24T20:11:20.814Z,37.03
2022-09-24T20:13:49.039Z,36.72
2022-09-24T20:16:20.170Z,37.30
2022-09-24T20:18:48.526Z,35.17
2022-09-24T20:21:18.381Z,39.25
2022-09-24T20:23:47.710Z,38.25
2022-09-24T20:26:35.742Z,40.60
2022-09-24T20:29:06.798Z,38.45
2022-09-24T20:31:34.721Z,39.25
2022-09-24T20:34:02.666Z,39.63
2022-09-24T20:36:31.301Z,40.20
2022-09-24T20:38:59.830Z,37.60
2022-09-24T20:41:29.055Z,38.13
2022-09-24T20:43:56.957Z,39.15
2022-09-24T20:46:26.414Z,38.13
2022-09-24T20:48:58.303Z,43.47
2022-09-24T20:51:27.431Z,41.75
2022-09-24T20:53:55.615Z,43.33
2022-09-24T20:56:23.692Z,44.65
2022-09-24T20:58:54.647Z,46.95
2022-09-24T21:01:23.209Z,46.80
2022-09-24T21:03:51.276Z,46.95
2022-09-24T21:06:22.661Z,50.95
2022-09-24T21:08:50.543Z,52.67
2022-09-24T21:11:21.052Z,52.33
2022-09-24T21:13:50.812Z,56.95
2022-09-24T21:16:22.138Z,60.25
2022-09-24T21:18:54.117Z,58.65
2022-09-24T21:21:24.015Z,54.28
2022-09-24T21:23:53.394Z,51.78
2022-09-24T21:26:23.193Z,52.90
2022-09-24T21:28:52.970Z,53.72
2022-09-24T21:31:23.949Z,52.08
2022-09-24T21:33:53.695Z,51.35
2022-09-24T21:36:24.270Z,50.85
2022-09-24T21:38:55.316Z,50.45
2022-09-24T21:41:23.875Z,52.80
2022-09-24T21:43:53.471Z,50.38
2022-09-24T21:46:23.590Z,52.03
2022-09-24T21:48:52.239Z,51.63
2022-09-24T21:51:22.484Z,50.97
2022-09-24T21:53:51.087Z,55.00
2022-09-24T21:56:19.443Z,49.08
2022-09-24T21:58:47.470Z,51.08
2022-09-24T22:01:17.833Z,52.58
2022-09-24T22:03:47.878Z,47.75
2022-09-24T22:06:16.619Z,50.70
2022-09-24T22:08:47.337Z,51.75
2022-09-24T22:11:16.065Z,46.53
2022-09-24T22:13:45.022Z,50.67
2022-09-24T22:16:13.015Z,45.83
2022-09-24T22:18:41.124Z,46.42
2022-09-24T22:21:12.611Z,45.30
2022-09-24T22:23:41.391Z,43.83
2022-09-24T22:26:11.307Z,45.45
2022-09-24T22:28:39.270Z,43.22
2022-09-24T22:31:09.588Z,41.15
2022-09-24T22:33:55.517Z,42.78
2022-09-24T22:36:24.865Z,39.38
2022-09-24T22:38:53.578Z,40.47
2022-09-24T22:41:21.524Z,44.28
2022-09-24T22:43:49.600Z,39.88
2022-09-24T22:46:17.567Z,36.08
2022-09-24T22:48:47.433Z,37.88
2022-09-24T22:51:15.813Z,37.67
2022-09-24T22:53:45.080Z,36.83
2022-09-24T22:56:14.750Z,39.33
2022-09-24T22:58:45.027Z,36.17
2022-09-24T23:03:42.859Z,37.25
2022-09-24T23:06:11.910Z,38.92
2022-09-24T23:08:41.056Z,39.10
2022-09-24T23:11:12.464Z,36.97
2022-09-24T23:13:41.771Z,36.10
2022-09-24T23:16:12.258Z,34.80
2022-09-24T23:18:41.029Z,33.08
2022-09-24T23:21:10.695Z,32.72
2022-09-24T23:23:38.766Z,32.08
2022-09-24T23:26:11.035Z,30.65
2022-09-24T23:28:42.542Z,32.75
2022-09-24T23:31:13.457Z,31.13
2022-09-24T23:33:42.579Z,32.20
2022-09-24T23:36:13.113Z,30.70
2022-09-24T23:38:42.105Z,27.70
2022-09-24T23:41:11.470Z,29.73
2022-09-24T23:43:39.663Z,28.93
2022-09-24T23:46:09.818Z,28.33
2022-09-24T23:51:06.756Z,26.30
2022-09-24T23:53:35.572Z,26.98
2022-09-24T23:56:05.666Z,28.10
2022-09-24T23:58:33.726Z,27.92
